0°C Temp
-1°C Dewpoint
93% Humidity
Temperature
3 KM/H
2 MPH
2 KTS
Calm
Due North

Wind Speed
Mostly Scattered
Clouds
Pressure 1012.92 (hPa) - 29.91 (in)
Visibility 5.0 (mi) - 8.0 (km)

Current Conditions
LIMP
Location 40(km)
Metar :LIMP 071850Z VRB02KT 8000 SCT040 00/M01 Q1013
Tue 7th December 19:50 pm

Airport
  Metar Aviation API Data Provided by https://www.checkwx.com/ PHP scripts by weather34.com ©2021